Time;durP1;ratioP1;P1;durP2;ratioP2;P2;SDS_P1;SDS_P2;PMS_P1;PMS_P2;Temp;Humidity;BMP_temperature;BMP_pressure;BME280_temperature;BME280_humidity;BME280_pressure;Samples;Min_cycle;Max_cycle;Signal;HPM_P1;HPM_P2
2021/06/19 05:53:46;;;;;;;11.63;6.90;;;31.90;36.20;;;;;;3171867;26;20476;-77
2021/06/19 05:56:13;;;;;;;10.07;6.83;;;32.00;35.00;;;;;;5061840;28;20500;-77
2021/06/19 05:58:40;;;;;;;8.50;5.80;;;32.10;33.50;;;;;;5057669;28;20945;-77
2021/06/19 06:01:07;;;;;;;6.97;6.27;;;31.80;34.10;;;;;;5056760;28;20518;-77
2021/06/19 06:03:34;;;;;;;12.30;5.70;;;32.00;34.30;;;;;;5057602;28;20514;-77
2021/06/19 06:06:01;;;;;;;8.80;5.83;;;32.00;34.20;;;;;;5056580;28;20496;-77
2021/06/19 06:08:28;;;;;;;10.93;5.80;;;32.20;32.70;;;;;;5056730;28;20524;-77
2021/06/19 06:10:56;;;;;;;6.57;5.53;;;32.20;33.00;;;;;;5055837;28;20543;-78
2021/06/19 06:13:23;;;;;;;8.77;6.00;;;32.30;33.00;;;;;;5059854;28;20512;-77
2021/06/19 06:15:50;;;;;;;8.10;6.00;;;32.80;31.60;;;;;;5062462;28;20512;-77
2021/06/19 06:18:17;;;;;;;11.60;5.83;;;32.50;31.60;;;;;;5062475;28;20484;-77
2021/06/19 06:20:44;;;;;;;10.60;5.43;;;32.20;32.30;;;;;;5061139;28;20477;-76
2021/06/19 06:23:11;;;;;;;7.83;5.30;;;32.00;32.60;;;;;;5056524;28;20956;-77
2021/06/19 06:25:38;;;;;;;8.63;6.07;;;32.00;32.50;;;;;;5065971;28;20495;-77
2021/06/19 06:28:06;;;;;;;7.33;6.13;;;31.90;32.70;;;;;;5074356;28;20511;-77
2021/06/19 06:30:33;;;;;;;5.87;5.17;;;31.70;31.70;;;;;;5061563;28;20453;-77
2021/06/19 06:33:00;;;;;;;6.73;5.30;;;31.30;32.30;;;;;;5057858;28;20456;-77
2021/06/19 06:35:27;;;;;;;10.30;4.97;;;31.30;32.30;;;;;;5056734;28;20544;-77
2021/06/19 06:37:54;;;;;;;8.97;5.40;;;31.50;32.50;;;;;;5056785;28;20483;-79
2021/06/19 06:40:21;;;;;;;9.40;4.87;;;31.90;31.60;;;;;;5056347;28;20499;-77
2021/06/19 06:42:47;;;;;;;5.23;4.83;;;32.20;31.20;;;;;;5056167;28;20491;-76
2021/06/19 06:45:16;;;;;;;4.97;4.43;;;32.20;30.00;;;;;;5057167;28;20457;-77
2021/06/19 06:47:43;;;;;;;8.63;4.00;;;32.10;28.90;;;;;;5056789;28;20575;-77
2021/06/19 06:50:11;;;;;;;8.03;4.50;;;32.20;29.10;;;;;;5055555;28;20480;-77
2021/06/19 06:52:38;;;;;;;8.63;4.77;;;32.40;28.90;;;;;;5055559;28;20877;-77
2021/06/19 06:55:08;;;;;;;6.57;5.10;;;32.50;29.00;;;;;;5057774;28;20952;-78
2021/06/19 06:57:35;;;;;;;5.23;4.83;;;32.20;29.10;;;;;;5056503;28;20945;-77
2021/06/19 07:00:02;;;;;;;7.27;4.87;;;32.10;29.90;;;;;;5057032;28;20469;-78
2021/06/19 07:02:31;;;;;;;7.30;5.37;;;32.30;30.10;;;;;;5056078;28;20448;-78
2021/06/19 07:04:58;;;;;;;7.63;4.80;;;32.30;29.50;;;;;;5056471;28;21007;-79
2021/06/19 07:07:25;;;;;;;5.93;4.27;;;31.30;30.00;;;;;;5058131;28;20547;-77
2021/06/19 07:09:52;;;;;;;5.53;4.70;;;30.70;31.60;;;;;;5056526;28;20474;-77
2021/06/19 07:12:19;;;;;;;5.93;4.90;;;30.00;33.30;;;;;;5063173;28;20459;-79
2021/06/19 07:14:46;;;;;;;6.00;5.43;;;29.50;34.70;;;;;;5064190;28;20424;-79
2021/06/19 07:17:12;;;;;;;5.80;5.20;;;29.30;36.20;;;;;;5063346;28;20484;-80
2021/06/19 07:19:41;;;;;;;8.03;5.60;;;29.00;36.00;;;;;;5066524;28;20491;-78
2021/06/19 07:22:08;;;;;;;5.27;4.87;;;28.60;37.30;;;;;;5067295;28;20425;-78
2021/06/19 07:24:36;;;;;;;4.97;4.57;;;28.50;36.10;;;;;;5067773;28;20466;-79
2021/06/19 07:27:04;;;;;;;4.93;4.23;;;28.20;35.40;;;;;;5068637;28;20539;-78
2021/06/19 07:29:31;;;;;;;6.13;4.33;;;27.60;38.40;;;;;;5067810;28;20486;-78
2021/06/19 07:31:58;;;;;;;5.33;4.13;;;27.60;37.60;;;;;;5059768;28;20476;-76
2021/06/19 07:34:27;;;;;;;7.87;4.83;;;27.90;36.00;;;;;;5056431;28;20485;-78
2021/06/19 07:36:55;;;;;;;6.33;4.20;;;28.20;36.80;;;;;;5058342;28;21011;-78
2021/06/19 07:39:22;;;;;;;4.27;3.87;;;28.30;35.90;;;;;;5059467;28;20476;-77
2021/06/19 07:41:49;;;;;;;4.67;4.20;;;28.20;35.40;;;;;;5061108;28;20460;-80
2021/06/19 07:44:16;;;;;;;5.37;4.50;;;27.60;37.40;;;;;;5065753;28;20434;-78
2021/06/19 07:46:46;;;;;;;6.83;4.97;;;27.90;37.70;;;;;;5080613;28;20538;-79
2021/06/19 07:49:13;;;;;;;6.20;4.47;;;27.30;38.60;;;;;;5081985;28;20427;-81
2021/06/19 07:51:40;;;;;;;7.10;4.60;;;27.70;38.00;;;;;;5072916;28;20456;-78
2021/06/19 07:54:09;;;;;;;6.63;5.30;;;27.70;38.20;;;;;;5058692;28;20536;-79
2021/06/19 07:56:35;;;;;;;5.70;4.70;;;27.90;37.70;;;;;;5073691;28;20504;-79
2021/06/19 07:59:02;;;;;;;6.40;5.10;;;27.70;38.50;;;;;;5074530;28;20891;-79
2021/06/19 08:01:29;;;;;;;6.07;5.10;;;27.60;38.90;;;;;;5069554;28;20412;-86
2021/06/19 08:03:56;;;;;;;5.10;4.60;;;27.50;38.80;;;;;;5069440;28;20448;-80
2021/06/19 08:06:23;;;;;;;9.30;5.10;;;27.70;39.50;;;;;;5059375;28;20476;-79
2021/06/19 08:08:50;;;;;;;6.90;5.03;;;27.60;39.00;;;;;;5033854;28;21034;-80
2021/06/19 08:11:18;;;;;;;4.93;4.40;;;27.90;38.10;;;;;;5022032;28;20516;-81
2021/06/19 08:13:45;;;;;;;12.13;5.30;;;27.90;38.30;;;;;;5021281;28;20986;-80
2021/06/19 08:16:16;;;;;;;8.87;5.30;;;27.90;38.30;;;;;;5018273;28;20853;-80
2021/06/19 08:18:42;;;;;;;5.83;5.40;;;28.00;37.20;;;;;;5018533;28;20439;-80
2021/06/19 08:21:09;;;;;;;6.60;4.40;;;28.10;37.10;;;;;;5017720;28;20528;-79
2021/06/19 08:23:36;;;;;;;9.63;5.10;;;28.20;36.70;;;;;;5015305;28;20489;-76
2021/06/19 08:26:03;;;;;;;6.20;4.73;;;28.60;35.80;;;;;;5014322;28;20823;-78
2021/06/19 08:28:33;;;;;;;13.20;5.17;;;28.70;35.70;;;;;;5016013;28;20515;-78
2021/06/19 08:31:00;;;;;;;7.87;4.63;;;28.90;35.90;;;;;;5016907;28;20495;-79
2021/06/19 08:33:28;;;;;;;5.50;4.87;;;28.90;35.90;;;;;;5019276;28;20508;-80
2021/06/19 08:35:54;;;;;;;8.17;5.27;;;28.80;35.80;;;;;;5022720;28;20522;-79
2021/06/19 08:38:22;;;;;;;8.17;4.70;;;28.90;35.90;;;;;;5019267;28;20543;-79
2021/06/19 08:40:49;;;;;;;7.63;4.90;;;28.40;36.30;;;;;;5020752;28;20458;-80
2021/06/19 08:43:17;;;;;;;6.83;4.80;;;28.00;37.30;;;;;;5018761;28;20464;-79
2021/06/19 08:45:48;;;;;;;9.00;5.13;;;28.40;35.50;;;;;;5019187;28;20495;-78
2021/06/19 08:48:17;;;;;;;5.87;4.80;;;28.60;35.70;;;;;;5018555;28;20976;-80
2021/06/19 08:50:45;;;;;;;12.83;5.37;;;28.80;35.90;;;;;;5018560;28;20493;-80
2021/06/19 08:53:12;;;;;;;5.73;5.17;;;28.90;35.70;;;;;;5018614;28;20940;-78
2021/06/19 08:55:39;;;;;;;7.20;5.47;;;28.90;35.90;;;;;;5018600;28;20450;-79
2021/06/19 08:58:07;;;;;;;9.03;5.30;;;29.00;36.00;;;;;;5019950;28;20461;-80
2021/06/19 09:00:33;;;;;;;5.63;5.00;;;28.90;35.90;;;;;;5018900;28;20483;-78
2021/06/19 09:03:02;;;;;;;8.17;5.50;;;29.00;36.00;;;;;;5018721;28;20459;-78
2021/06/19 09:05:31;;;;;;;8.77;5.50;;;28.80;35.80;;;;;;5018404;28;20463;-78
2021/06/19 09:07:58;;;;;;;7.40;5.57;;;28.50;36.20;;;;;;5022319;28;20461;-78
2021/06/19 09:10:32;;;;;;;8.67;5.50;;;28.40;37.20;;;;;;5021207;28;20466;-77
2021/06/19 09:13:05;;;;;;;7.77;5.40;;;28.30;36.60;;;;;;5029140;28;20440;-76
2021/06/19 09:15:34;;;;;;;6.23;5.23;;;28.50;36.30;;;;;;5033011;28;20452;-78
2021/06/19 09:18:11;;;;;;;7.63;5.10;;;28.90;35.90;;;;;;5024591;28;20511;-78
2021/06/19 09:20:41;;;;;;;5.63;5.07;;;29.30;36.20;;;;;;5019452;28;20440;-78
2021/06/19 09:23:09;;;;;;;6.17;5.23;;;29.40;35.50;;;;;;5027963;28;20418;-76
2021/06/19 09:25:37;;;;;;;6.57;5.23;;;29.50;36.30;;;;;;5024211;28;20418;-79
2021/06/19 09:28:06;;;;;;;8.90;5.60;;;28.90;35.90;;;;;;5029407;28;20484;-79
2021/06/19 09:30:34;;;;;;;8.63;5.20;;;29.20;35.60;;;;;;5020378;28;20440;-78
2021/06/19 09:33:02;;;;;;;9.03;5.40;;;28.90;35.90;;;;;;5017318;28;20876;-77
2021/06/19 09:35:32;;;;;;;11.17;4.47;;;29.10;36.10;;;;;;5018131;28;20816;-78
2021/06/19 09:38:02;;;;;;;14.80;5.50;;;29.30;34.60;;;;;;5017890;28;20493;-78
2021/06/19 09:40:31;;;;;;;9.07;5.27;;;29.40;34.90;;;;;;5020485;28;20452;-78
2021/06/19 09:43:10;;;;;;;6.20;5.47;;;29.30;36.90;;;;;;5018274;28;20872;-77
2021/06/19 09:45:37;;;;;;;7.93;5.40;;;29.70;34.80;;;;;;5015180;28;20515;-77
2021/06/19 09:48:06;;;;;;;5.83;5.07;;;29.70;34.20;;;;;;5018196;28;20521;-77
2021/06/19 09:50:34;;;;;;;9.67;5.87;;;30.00;34.50;;;;;;5014072;28;20885;-77
2021/06/19 09:53:14;;;;;;;6.50;5.33;;;30.10;35.70;;;;;;5015951;28;20486;-77
2021/06/19 09:56:02;;;;;;;10.53;5.73;;;30.10;36.80;;;;;;5015449;28;20485;-78
2021/06/19 09:58:40;;;;;;;6.63;6.03;;;29.60;36.40;;;;;;5017524;28;20447;-77
2021/06/19 10:01:08;;;;;;;13.60;5.87;;;30.00;36.70;;;;;;5020249;28;20508;-76
2021/06/19 10:03:57;;;;;;;8.40;5.67;;;29.80;36.60;;;;;;5017424;28;20528;-78
2021/06/19 10:06:27;;;;;;;8.77;5.40;;;29.50;36.30;;;;;;5022969;28;20486;-80
2021/06/19 10:08:55;;;;;;;8.97;5.90;;;29.70;36.50;;;;;;5013731;28;20490;-77
2021/06/19 10:11:25;;;;;;;7.40;5.73;;;29.70;36.50;;;;;;5017218;28;20519;-77
2021/06/19 10:13:55;;;;;;;7.97;5.53;;;29.70;36.50;;;;;;5025390;28;20462;-77
2021/06/19 10:16:24;;;;;;;7.63;5.80;;;29.70;36.50;;;;;;5022028;28;20475;-78
2021/06/19 10:18:52;;;;;;;6.90;5.00;;;30.20;36.80;;;;;;5022340;28;20518;-78
2021/06/19 10:21:27;;;;;;;9.77;5.90;;;30.60;35.30;;;;;;5017433;28;20428;-78
2021/06/19 10:23:54;;;;;;;9.60;5.53;;;30.60;34.70;;;;;;5017182;28;20556;-79
2021/06/19 10:26:24;;;;;;;6.77;6.07;;;30.40;35.30;;;;;;5020054;28;20504;-77
2021/06/19 10:28:55;;;;;;;8.90;5.83;;;30.50;35.00;;;;;;5030040;28;20458;-79
2021/06/19 10:31:22;;;;;;;11.23;6.10;;;30.50;35.80;;;;;;5037010;28;20562;-78
2021/06/19 10:33:49;;;;;;;11.13;6.13;;;30.50;36.20;;;;;;5023388;28;20464;-77
2021/06/19 10:36:17;;;;;;;9.03;5.80;;;30.30;36.90;;;;;;5040338;28;20655;-79
2021/06/19 10:38:52;;;;;;;8.23;6.00;;;30.00;36.70;;;;;;5039288;28;20423;-78
2021/06/19 10:41:21;;;;;;;7.23;6.53;;;30.20;36.80;;;;;;5033880;28;20451;-78
2021/06/19 10:43:51;;;;;;;9.70;6.07;;;30.00;36.70;;;;;;4999482;28;20451;-78
2021/06/19 10:46:33;;;;;;;15.80;6.33;;;29.90;36.60;;;;;;5014315;28;20549;-78
2021/06/19 10:49:01;;;;;;;9.67;7.33;;;30.30;36.90;;;;;;5017864;28;20494;-79
2021/06/19 10:51:31;;;;;;;12.60;6.43;;;30.70;36.50;;;;;;5019775;28;20466;-80
2021/06/19 10:54:16;;;;;;;10.33;6.43;;;30.40;36.60;;;;;;5016715;28;20510;-78
2021/06/19 10:56:52;;;;;;;6.70;6.00;;;30.50;37.30;;;;;;5015063;28;20495;-78
2021/06/19 10:59:21;;;;;;;8.30;6.20;;;30.50;36.40;;;;;;5017844;28;20464;-78
2021/06/19 11:01:49;;;;;;;7.67;5.80;;;30.40;37.00;;;;;;5014386;28;20476;-79
2021/06/19 11:04:46;;;;;;;9.40;6.43;;;30.70;37.10;;;;;;5024575;28;20516;-79
2021/06/19 11:07:51;;;;;;;9.93;6.83;;;30.80;35.50;;;;;;5015537;28;21034;-77
2021/06/19 11:10:54;;;;;;;8.60;6.50;;;30.80;35.80;;;;;;5020079;28;20532;-77
2021/06/19 11:13:41;;;;;;;8.97;6.20;;;30.40;36.40;;;;;;5018765;28;20941;-78
2021/06/19 11:16:47;;;;;;;9.17;6.40;;;30.70;37.20;;;;;;5013803;28;20975;-77
2021/06/19 11:19:38;;;;;;;8.40;6.03;;;30.70;36.50;;;;;;5013012;28;20910;-78
2021/06/19 11:22:24;;;;;;;12.60;7.07;;;31.00;35.50;;;;;;5025137;28;20946;-77
2021/06/19 11:25:24;;;;;;;16.40;7.40;;;31.10;34.10;;;;;;5013873;28;20483;-77
2021/06/19 11:27:56;;;;;;;10.90;7.03;;;31.00;35.30;;;;;;5022029;28;20759;-78
2021/06/19 11:30:57;;;;;;;14.23;8.20;;;31.20;35.50;;;;;;5023911;28;20447;-79
2021/06/19 11:33:38;;;;;;;13.50;6.80;;;31.20;34.60;;;;;;5022259;28;20459;-77
2021/06/19 11:36:29;;;;;;;12.90;7.17;;;31.30;34.30;;;;;;5018791;28;20994;-78
2021/06/19 11:39:01;;;;;;;9.40;6.53;;;31.60;32.50;;;;;;5020337;28;20446;-79
2021/06/19 11:41:32;;;;;;;10.73;7.80;;;31.80;33.50;;;;;;5015018;28;20849;-78
2021/06/19 11:44:01;;;;;;;11.10;7.57;;;31.10;34.10;;;;;;5014092;28;20461;-78
2021/06/19 11:46:28;;;;;;;18.33;6.70;;;31.10;33.40;;;;;;5014636;28;20929;-77
2021/06/19 11:48:56;;;;;;;13.03;7.93;;;31.20;31.60;;;;;;5016323;28;20958;-79
2021/06/19 11:51:25;;;;;;;9.20;6.60;;;31.20;33.00;;;;;;5019187;28;20831;-77
2021/06/19 11:53:52;;;;;;;15.17;7.03;;;31.30;32.80;;;;;;5014739;28;20561;-77
2021/06/19 11:56:22;;;;;;;9.47;6.70;;;31.70;32.60;;;;;;5015636;28;20513;-77
2021/06/19 11:58:50;;;;;;;11.77;7.33;;;31.50;32.50;;;;;;5013833;28;20775;-77
2021/06/19 12:01:21;;;;;;;13.37;6.50;;;31.60;31.40;;;;;;5011099;28;20802;-78
2021/06/19 12:03:49;;;;;;;13.10;7.97;;;31.90;31.40;;;;;;5002702;28;20487;-77
2021/06/19 12:06:16;;;;;;;11.03;7.00;;;31.70;32.50;;;;;;5015352;28;20470;-80
2021/06/19 12:08:44;;;;;;;14.57;6.97;;;32.00;30.90;;;;;;5025663;28;20510;-78
2021/06/19 12:11:11;;;;;;;11.03;6.53;;;32.60;30.30;;;;;;5016595;28;20531;-78
2021/06/19 12:13:40;;;;;;;14.60;7.70;;;32.60;30.00;;;;;;5020612;28;20433;-78
2021/06/19 12:16:09;;;;;;;18.30;7.67;;;32.80;28.60;;;;;;5025195;28;20493;-78
2021/06/19 12:18:38;;;;;;;11.97;7.33;;;32.50;30.80;;;;;;5021875;28;20868;-76
2021/06/19 12:21:07;;;;;;;14.37;7.93;;;32.80;30.20;;;;;;5022003;28;20437;-76
2021/06/19 12:23:36;;;;;;;12.23;7.30;;;33.00;29.70;;;;;;5015243;28;20489;-78
2021/06/19 12:26:06;;;;;;;10.23;7.27;;;32.40;29.90;;;;;;5017632;28;20475;-77
2021/06/19 12:28:34;;;;;;;8.90;7.40;;;32.40;30.40;;;;;;5017275;28;20486;-77
2021/06/19 12:31:01;;;;;;;12.93;6.67;;;32.80;29.80;;;;;;5027088;28;20479;-77
2021/06/19 12:33:30;;;;;;;10.43;7.50;;;33.20;28.80;;;;;;5029843;28;20439;-79
2021/06/19 12:36:00;;;;;;;15.00;7.07;;;32.80;28.50;;;;;;5024458;28;20470;-77
2021/06/19 12:38:30;;;;;;;10.37;7.90;;;32.60;29.40;;;;;;5017109;28;20827;-77
2021/06/19 12:40:58;;;;;;;13.83;7.43;;;32.30;29.50;;;;;;5019751;28;20499;-77
2021/06/19 12:43:26;;;;;;;11.30;7.07;;;31.90;30.20;;;;;;5014351;28;20545;-76
2021/06/19 12:45:54;;;;;;;13.63;7.10;;;31.90;30.60;;;;;;5015187;28;20585;-77
2021/06/19 12:48:23;;;;;;;9.70;6.97;;;31.70;29.90;;;;;;5015314;28;20562;-75
2021/06/19 12:50:51;;;;;;;11.50;6.20;;;31.90;29.50;;;;;;5014830;28;20486;-76
2021/06/19 12:53:24;;;;;;;15.00;7.40;;;31.80;30.00;;;;;;5010738;28;20464;-78
2021/06/19 12:56:03;;;;;;;13.93;7.40;;;31.80;30.00;;;;;;4994600;28;20566;-76
2021/06/19 12:58:38;;;;;;;11.07;7.33;;;31.90;29.80;;;;;;5009105;28;20463;-78
2021/06/19 13:01:16;;;;;;;89.10;77.27;;;31.60;30.60;;;;;;5014507;28;20485;-77
2021/06/19 13:03:47;;;;;;;16.30;12.10;;;31.70;30.60;;;;;;5015011;28;20495;-78
2021/06/19 13:06:28;;;;;;;11.07;6.70;;;31.70;33.30;;;;;;5014377;28;20966;-78
2021/06/19 13:09:03;;;;;;;17.40;7.10;;;31.90;32.00;;;;;;5020283;28;20982;-75
2021/06/19 13:11:32;;;;;;;13.93;7.50;;;32.10;32.70;;;;;;5017159;28;20455;-73
2021/06/19 13:14:01;;;;;;;12.20;6.83;;;32.00;31.20;;;;;;5014044;28;20958;-75
2021/06/19 13:16:30;;;;;;;12.57;6.93;;;32.00;32.20;;;;;;5013937;28;20467;-72
2021/06/19 13:19:00;;;;;;;14.77;6.83;;;32.00;30.10;;;;;;5013188;28;20536;-73
2021/06/19 13:21:28;;;;;;;17.50;7.30;;;31.90;31.10;;;;;;5013369;28;20498;-73
2021/06/19 13:23:57;;;;;;;17.80;6.80;;;31.60;29.80;;;;;;5013836;28;20454;-73
2021/06/19 13:26:27;;;;;;;14.67;6.50;;;31.70;30.70;;;;;;5013267;28;20449;-72
2021/06/19 13:29:00;;;;;;;15.53;7.70;;;32.00;29.70;;;;;;5013760;28;20486;-72
2021/06/19 13:31:31;;;;;;;9.07;6.40;;;32.30;28.20;;;;;;5014389;28;20470;-73
2021/06/19 13:34:07;;;;;;;10.60;6.10;;;32.70;28.50;;;;;;5026751;28;20435;-82
2021/06/19 13:36:42;;;;;;;12.30;6.70;;;32.30;28.20;;;;;;5031570;28;20982;-79
2021/06/19 13:39:18;;;;;;;11.73;6.20;;;32.20;28.20;;;;;;5015568;28;20448;-81
2021/06/19 13:41:46;;;;;;;11.13;6.90;;;32.20;28.20;;;;;;5022240;28;20455;-77
2021/06/19 13:44:15;;;;;;;12.97;6.77;;;32.20;27.80;;;;;;5031866;28;20458;-77
2021/06/19 13:46:43;;;;;;;9.33;6.30;;;32.00;28.10;;;;;;5031171;28;20534;-77
2021/06/19 13:49:14;;;;;;;10.13;6.57;;;32.30;28.20;;;;;;5030593;28;20486;-78
2021/06/19 13:51:43;;;;;;;9.70;6.10;;;32.50;29.00;;;;;;5029976;28;20820;-78
2021/06/19 13:54:13;;;;;;;18.00;7.03;;;32.90;27.70;;;;;;5032191;28;20478;-78
2021/06/19 13:56:40;;;;;;;8.83;6.07;;;32.70;27.60;;;;;;5030624;28;20482;-80
2021/06/19 13:59:07;;;;;;;13.57;7.07;;;32.50;27.80;;;;;;5030760;28;20464;-80
2021/06/19 14:01:34;;;;;;;11.20;6.30;;;32.60;27.10;;;;;;5034514;28;20504;-80
2021/06/19 14:04:03;;;;;;;16.00;6.23;;;32.80;26.80;;;;;;5035207;28;20469;-79
2021/06/19 14:06:33;;;;;;;14.40;7.00;;;33.10;26.00;;;;;;5036667;28;20458;-80
2021/06/19 14:09:00;;;;;;;9.70;7.00;;;33.30;25.90;;;;;;5038924;28;20471;-79
2021/06/19 14:11:30;;;;;;;16.80;7.30;;;33.30;26.20;;;;;;5040350;28;20477;-79
2021/06/19 14:13:58;;;;;;;9.67;6.70;;;33.10;26.70;;;;;;5039490;28;20442;-79
2021/06/19 14:16:26;;;;;;;14.83;7.40;;;33.20;27.10;;;;;;5039089;28;20479;-80
2021/06/19 14:18:53;;;;;;;8.53;7.07;;;33.00;27.10;;;;;;5040658;28;20474;-79
2021/06/19 14:21:21;;;;;;;16.87;7.00;;;32.70;28.00;;;;;;5037709;28;20431;-78
2021/06/19 14:23:49;;;;;;;14.90;8.60;;;32.90;28.00;;;;;;5036218;28;20447;-78
2021/06/19 14:26:20;;;;;;;22.53;7.83;;;32.80;27.10;;;;;;5035648;28;20478;-78
2021/06/19 14:28:48;;;;;;;20.20;7.23;;;32.70;27.30;;;;;;5032222;28;20459;-78
2021/06/19 14:31:16;;;;;;;11.93;6.90;;;32.50;28.40;;;;;;5039285;28;20463;-81
2021/06/19 14:33:43;;;;;;;18.23;6.70;;;32.40;28.30;;;;;;5037255;28;20481;-79
2021/06/19 14:36:22;;;;;;;13.37;6.80;;;32.50;28.40;;;;;;5036790;28;20441;-81
2021/06/19 14:42:27;;;;;;;17.50;6.93;;;33.00;27.60;;;;;;5013443;28;20454;-80
2021/06/19 14:44:57;;;;;;;12.30;6.90;;;32.70;28.50;;;;;;5016581;28;20440;-79
2021/06/19 14:47:24;;;;;;;14.70;6.37;;;32.80;27.70;;;;;;5012115;28;20518;-80
2021/06/19 14:49:53;;;;;;;12.07;6.30;;;32.60;29.00;;;;;;5011088;28;20526;-79
2021/06/19 14:52:20;;;;;;;10.80;8.10;;;32.70;28.50;;;;;;5008076;28;20455;-80
2021/06/19 14:54:49;;;;;;;13.30;7.00;;;32.50;27.90;;;;;;5012346;28;20418;-79
2021/06/19 14:57:16;;;;;;;10.20;6.47;;;32.50;28.40;;;;;;5010444;28;20610;-79
2021/06/19 14:59:45;;;;;;;17.77;7.17;;;32.90;27.80;;;;;;4999715;28;20879;-80
2021/06/19 15:02:22;;;;;;;13.57;6.60;;;33.10;26.40;;;;;;5000412;28;20455;-78
2021/06/19 15:04:50;;;;;;;17.13;7.30;;;32.70;28.40;;;;;;4997132;28;20451;-79
2021/06/19 15:07:17;;;;;;;17.37;6.90;;;33.00;27.20;;;;;;4997071;28;20888;-78
2021/06/19 15:09:44;;;;;;;17.20;7.30;;;32.90;27.10;;;;;;4996243;28;20533;-80
2021/06/19 15:12:11;;;;;;;15.97;6.80;;;32.60;28.10;;;;;;4998580;28;20515;-79
2021/06/19 15:14:38;;;;;;;11.30;7.13;;;32.50;28.40;;;;;;5005662;28;20463;-79
2021/06/19 15:17:06;;;;;;;11.93;7.20;;;32.70;27.40;;;;;;5034285;28;20482;-79
2021/06/19 15:19:34;;;;;;;15.20;7.07;;;32.50;28.00;;;;;;5033473;28;20447;-77
2021/06/19 15:22:01;;;;;;;11.63;7.00;;;32.30;27.90;;;;;;5032507;28;20475;-77
2021/06/19 15:24:28;;;;;;;17.63;7.10;;;32.10;28.10;;;;;;5026749;28;20469;-79
2021/06/19 15:26:54;;;;;;;12.87;7.30;;;32.00;28.10;;;;;;5025739;28;20513;-79
2021/06/19 15:29:27;;;;;;;13.33;7.17;;;32.20;28.20;;;;;;5022274;28;20981;-80
2021/06/19 15:31:54;;;;;;;11.97;6.43;;;32.10;28.10;;;;;;5022119;28;20520;-79
2021/06/19 15:34:21;;;;;;;8.33;6.67;;;32.30;28.20;;;;;;5018433;28;20490;-81
2021/06/19 15:36:49;;;;;;;17.30;6.67;;;32.50;27.80;;;;;;5019047;28;20492;-79
2021/06/19 15:39:16;;;;;;;10.20;6.87;;;32.60;28.30;;;;;;5017318;28;20546;-80
2021/06/19 15:41:43;;;;;;;10.43;6.83;;;32.40;28.30;;;;;;5016966;28;20549;-79
2021/06/19 15:44:10;;;;;;;11.77;7.30;;;32.40;28.30;;;;;;5024028;28;20951;-80
2021/06/19 15:46:37;;;;;;;16.77;7.37;;;32.50;28.40;;;;;;5030499;28;20503;-80
2021/06/19 15:49:05;;;;;;;16.50;7.70;;;32.30;28.30;;;;;;5031678;28;20451;-79
2021/06/19 15:51:33;;;;;;;12.77;6.77;;;32.20;28.20;;;;;;5026094;28;21017;-78
2021/06/19 15:54:03;;;;;;;15.20;6.70;;;32.20;28.20;;;;;;5022499;28;20513;-79
2021/06/19 15:56:30;;;;;;;14.73;7.13;;;32.00;28.10;;;;;;5013574;28;20471;-80
2021/06/19 15:58:57;;;;;;;18.27;6.77;;;32.10;28.20;;;;;;5021718;28;20491;-79
2021/06/19 16:01:24;;;;;;;21.03;7.90;;;32.00;28.20;;;;;;5026538;28;20451;-78
2021/06/19 16:03:51;;;;;;;13.97;7.33;;;32.00;28.40;;;;;;5027696;28;20539;-80
2021/06/19 16:06:19;;;;;;;7.30;6.33;;;32.00;28.40;;;;;;5027605;28;20515;-80
2021/06/19 16:08:46;;;;;;;12.63;6.93;;;32.00;28.10;;;;;;5023516;28;21017;-80
2021/06/19 16:11:14;;;;;;;11.80;7.03;;;31.90;28.60;;;;;;5018449;28;20539;-81
2021/06/19 16:13:41;;;;;;;15.50;7.23;;;31.80;29.10;;;;;;5022184;28;20534;-81
2021/06/19 16:16:08;;;;;;;16.10;7.20;;;31.90;29.30;;;;;;5041013;28;20450;-80
2021/06/19 16:18:35;;;;;;;16.00;6.93;;;32.30;28.90;;;;;;5029986;28;20485;-79
2021/06/19 16:21:02;;;;;;;9.23;6.60;;;32.10;29.20;;;;;;5031138;28;20446;-78
2021/06/19 16:23:39;;;;;;;11.83;6.70;;;32.20;29.30;;;;;;4994569;28;20452;-78
2021/06/19 16:26:07;;;;;;;11.07;6.40;;;32.20;29.40;;;;;;4997153;28;20462;-79
2021/06/19 16:28:36;;;;;;;13.20;6.70;;;31.90;30.00;;;;;;5015415;28;20454;-78
2021/06/19 16:31:03;;;;;;;12.80;7.20;;;32.00;29.70;;;;;;5030291;28;20492;-79
2021/06/19 16:33:30;;;;;;;10.10;6.63;;;32.00;29.50;;;;;;5016544;28;20475;-78
2021/06/19 16:35:57;;;;;;;17.20;7.37;;;32.30;29.50;;;;;;5015612;28;20453;-79
2021/06/19 16:38:24;;;;;;;10.37;7.07;;;33.00;28.60;;;;;;5019193;28;20530;-79
2021/06/19 16:40:51;;;;;;;13.97;6.07;;;32.80;28.60;;;;;;5033522;28;20426;-79
2021/06/19 16:43:18;;;;;;;15.10;6.63;;;32.70;28.50;;;;;;5049465;28;20449;-78
2021/06/19 16:45:46;;;;;;;10.43;7.10;;;32.50;28.90;;;;;;5036446;28;20513;-79
2021/06/19 16:48:13;;;;;;;16.03;7.13;;;32.40;28.60;;;;;;5038151;28;20449;-78
2021/06/19 16:50:43;;;;;;;11.27;6.57;;;32.30;28.90;;;;;;5035146;28;20518;-79
2021/06/19 16:53:10;;;;;;;13.70;6.43;;;32.30;29.30;;;;;;5022644;28;20469;-78
2021/06/19 16:55:37;;;;;;;10.60;6.27;;;32.30;29.30;;;;;;5030619;28;20458;-78
2021/06/19 16:58:05;;;;;;;8.47;5.83;;;32.30;29.90;;;;;;5011703;28;20458;-78
2021/06/19 17:00:32;;;;;;;11.03;7.27;;;32.50;29.40;;;;;;5011935;28;20931;-78
2021/06/19 17:03:01;;;;;;;15.03;6.73;;;32.60;29.10;;;;;;4992535;28;21137;-78
2021/06/19 17:05:28;;;;;;;12.07;6.50;;;32.20;30.00;;;;;;4993017;28;20534;-79
2021/06/19 17:07:55;;;;;;;14.23;7.47;;;32.10;30.10;;;;;;4993007;28;20426;-78
2021/06/19 17:10:22;;;;;;;13.33;7.10;;;32.00;30.70;;;;;;4995874;28;20585;-80
2021/06/19 17:12:49;;;;;;;13.40;6.80;;;31.90;31.40;;;;;;5015710;28;20553;-78
2021/06/19 17:15:17;;;;;;;12.03;6.73;;;32.10;31.10;;;;;;5014368;28;20537;-79
2021/06/19 17:17:44;;;;;;;14.73;7.30;;;32.20;30.80;;;;;;5015651;28;20455;-78
2021/06/19 17:20:13;;;;;;;13.83;7.47;;;32.40;30.90;;;;;;5014896;28;20462;-79
2021/06/19 17:22:41;;;;;;;15.57;7.63;;;32.50;30.20;;;;;;5016069;28;20542;-79
2021/06/19 17:25:09;;;;;;;11.03;6.93;;;32.50;30.50;;;;;;5009030;28;20470;-79
2021/06/19 17:27:36;;;;;;;13.40;7.20;;;32.20;31.40;;;;;;5016856;28;20498;-78
2021/06/19 17:30:03;;;;;;;13.27;7.67;;;32.30;31.30;;;;;;5011904;28;20551;-78
2021/06/19 17:32:30;;;;;;;12.10;7.83;;;32.20;31.60;;;;;;5034379;28;20541;-77
2021/06/19 17:34:57;;;;;;;9.20;6.90;;;32.10;31.20;;;;;;5019473;28;20501;-77
2021/06/19 17:37:25;;;;;;;11.20;7.13;;;32.10;31.80;;;;;;5016173;28;20465;-79
2021/06/19 17:39:52;;;;;;;15.50;7.30;;;32.00;32.20;;;;;;5014935;28;20450;-79
2021/06/19 17:42:22;;;;;;;17.20;7.70;;;32.40;31.60;;;;;;5016359;28;20530;-79
2021/06/19 17:44:49;;;;;;;11.17;7.13;;;32.10;32.10;;;;;;5023583;28;20452;-78
2021/06/19 17:47:16;;;;;;;18.77;7.40;;;31.80;32.70;;;;;;5035522;28;20493;-78
2021/06/19 17:49:43;;;;;;;14.43;7.70;;;31.50;33.60;;;;;;5015505;28;20558;-78
2021/06/19 17:52:18;;;;;;;18.40;7.50;;;31.30;34.00;;;;;;5015327;28;20488;-78
2021/06/19 17:54:48;;;;;;;12.23;7.73;;;31.00;34.80;;;;;;5018217;28;20489;-78
2021/06/19 17:57:17;;;;;;;13.53;7.43;;;30.90;35.60;;;;;;5013799;28;20453;-79
2021/06/19 17:59:45;;;;;;;13.83;7.33;;;31.00;34.80;;;;;;5015448;28;20433;-78
2021/06/19 18:02:13;;;;;;;14.33;7.73;;;30.90;35.30;;;;;;5013038;28;20867;-78
2021/06/19 18:04:40;;;;;;;15.90;8.40;;;30.80;35.80;;;;;;5073016;22;20543;-82
2021/06/19 18:07:08;;;;;;;22.67;7.90;;;30.70;36.10;;;;;;5061954;28;20460;-82
2021/06/19 18:09:36;;;;;;;13.40;7.73;;;30.60;37.10;;;;;;5058491;28;20511;-82
2021/06/19 18:12:05;;;;;;;16.30;8.70;;;30.50;37.00;;;;;;5059707;28;20484;-83
2021/06/19 18:14:32;;;;;;;12.80;8.40;;;30.50;37.00;;;;;;5058790;28;20465;-83
2021/06/19 18:17:20;;;;;;;12.43;7.60;;;30.40;37.00;;;;;;5071535;28;20438;-81
2021/06/19 18:19:48;;;;;;;16.60;8.80;;;30.40;37.00;;;;;;5075480;28;20452;-80
2021/06/19 18:22:16;;;;;;;12.80;7.57;;;30.50;37.00;;;;;;5074464;28;20558;-81
2021/06/19 18:24:44;;;;;;;16.60;8.60;;;30.50;37.00;;;;;;5074297;28;20503;-82
2021/06/19 18:27:15;;;;;;;13.03;8.10;;;30.40;37.00;;;;;;5075248;28;20461;-81
2021/06/19 18:29:43;;;;;;;12.43;7.93;;;30.40;37.00;;;;;;5074902;28;20464;-82
2021/06/19 18:32:10;;;;;;;14.70;8.60;;;30.30;37.20;;;;;;5063830;28;20480;-82
2021/06/19 18:34:39;;;;;;;13.20;8.10;;;30.20;37.90;;;;;;5057902;28;20912;-81
2021/06/19 18:37:06;;;;;;;15.37;7.80;;;30.10;38.30;;;;;;5066317;28;20455;-81
2021/06/19 18:39:35;;;;;;;18.47;8.30;;;30.10;38.50;;;;;;5058979;28;20463;-81
2021/06/19 18:42:02;;;;;;;9.73;7.60;;;30.00;38.80;;;;;;5057712;28;20958;-81
2021/06/19 18:44:30;;;;;;;15.60;8.00;;;29.90;39.00;;;;;;5057075;28;20575;-80
2021/06/19 18:46:57;;;;;;;12.77;7.50;;;29.80;39.00;;;;;;5059835;28;21008;-81
2021/06/19 18:49:25;;;;;;;21.30;9.27;;;29.70;39.30;;;;;;5063350;28;20458;-81